Time;durP1;ratioP1;P1;durP2;ratioP2;P2;SDS_P1;SDS_P2;PMS_P1;PMS_P2;Temp;Humidity;BMP_temperature;BMP_pressure;BME280_temperature;BME280_humidity;BME280_pressure;Samples;Min_cycle;Max_cycle;Signal;HPM_P1;HPM_P2
2021/01/04 00:00:49;;;;;;;30.10;20.20;;;;;;;0.27;100.00;151440.25;5075583;28;20429;-91
2021/01/04 00:03:51;;;;;;;31.10;20.10;;;;;;;0.31;100.00;151449.25;5085313;28;20958;-91
2021/01/04 00:06:59;;;;;;;31.80;20.03;;;;;;;0.26;100.00;151437.72;5095773;28;20453;-90
2021/01/04 00:09:43;;;;;;;27.00;19.87;;;;;;;0.26;100.00;151437.72;5093714;28;20476;-90
2021/01/04 00:12:23;;;;;;;34.27;21.60;;;;;;;0.26;100.00;151436.41;5095064;28;20450;-90
2021/01/04 00:15:06;;;;;;;29.90;19.20;;;;;;;0.26;100.00;151436.41;5094863;28;20444;-91
2021/01/04 00:18:03;;;;;;;34.20;20.40;;;;;;;0.29;100.00;151444.13;5088841;28;20447;-90
2021/01/04 00:20:44;;;;;;;33.37;21.20;;;;;;;0.28;100.00;151441.53;5078950;28;20452;-90
2021/01/04 00:23:26;;;;;;;37.40;20.00;;;;;;;0.26;100.00;151436.41;5074592;28;20426;-90
2021/01/04 00:26:05;;;;;;;37.30;21.70;;;;;;;0.26;100.00;151436.41;5091412;28;20553;-90
2021/01/04 00:28:43;;;;;;;35.13;21.30;;;;;;;0.27;100.00;151438.97;5088549;28;20463;-90
2021/01/04 00:31:21;;;;;;;37.00;21.50;;;;;;;0.24;100.00;151431.28;5096745;28;20441;-90
2021/01/04 00:34:02;;;;;;;35.30;20.43;;;;;;;0.25;100.00;151435.13;5094484;28;20837;-90
2021/01/04 00:36:57;;;;;;;36.17;22.50;;;;;;;0.21;100.00;151423.59;5091755;28;20462;-90
2021/01/04 00:39:39;;;;;;;35.13;21.33;;;;;;;0.20;100.00;151421.00;5111516;28;20443;-90
2021/01/04 00:42:24;;;;;;;31.80;19.70;;;;;;;0.17;100.00;151413.28;5078789;28;20471;-90
2021/01/04 00:45:07;;;;;;;32.80;20.73;;;;;;;0.18;100.00;151415.88;5111483;28;20454;-90
2021/01/04 00:47:53;;;;;;;34.77;21.20;;;;;;;0.20;100.00;151421.00;5079384;28;20808;-90
2021/01/04 00:50:53;;;;;;;37.40;20.90;;;;;;;0.15;100.00;151409.47;5082077;28;20500;-90
2021/01/04 00:53:32;;;;;;;33.13;19.80;;;;;;;0.20;100.00;151421.00;5071095;28;20438;-90
2021/01/04 00:56:18;;;;;;;32.53;19.93;;;;;;;0.22;100.00;151427.41;5094673;28;20509;-90
2021/01/04 00:59:29;;;;;;;37.67;21.97;;;;;;;0.23;100.00;151430.00;5094863;28;20443;-90
2021/01/04 01:02:27;;;;;;;34.97;21.73;;;;;;;0.22;100.00;151427.41;5076085;28;20538;-90
2021/01/04 01:05:08;;;;;;;34.03;21.60;;;;;;;0.23;100.00;151430.00;5095659;28;20434;-91
2021/01/04 01:08:05;;;;;;;33.50;20.77;;;;;;;0.23;100.00;151428.72;5101891;28;20453;-90
2021/01/04 01:10:45;;;;;;;36.43;21.13;;;;;;;0.23;100.00;151428.72;5094147;28;20480;-90
2021/01/04 01:13:42;;;;;;;29.17;18.60;;;;;;;0.22;100.00;151427.41;5093874;28;20460;-90
2021/01/04 01:17:02;;;;;;;34.00;21.50;;;;;;;0.21;100.00;151424.88;5074586;28;20450;-90
2021/01/04 01:19:46;;;;;;;32.57;20.17;;;;;;;0.23;100.00;151428.72;5079706;28;20467;-91
2021/01/04 01:22:26;;;;;;;30.50;19.63;;;;;;;0.23;100.00;151428.72;5093964;28;20457;-90
2021/01/04 01:25:07;;;;;;;31.57;19.50;;;;;;;0.24;100.00;151432.53;5078014;28;20523;-90
2021/01/04 01:28:02;;;;;;;36.70;22.30;;;;;;;0.24;100.00;151431.28;5093916;28;20441;-90
2021/01/04 01:31:03;;;;;;;34.33;20.40;;;;;;;0.26;100.00;151436.41;5090298;28;20476;-90
2021/01/04 01:34:19;;;;;;;33.30;20.77;;;;;;;0.29;100.00;151444.13;5096165;28;20429;-90
2021/01/04 01:37:26;;;;;;;34.67;21.70;;;;;;;0.26;100.00;151437.72;5073880;28;20453;-90
2021/01/04 01:40:16;;;;;;;37.00;21.23;;;;;;;0.27;100.00;151438.97;5076677;28;20442;-91
2021/01/04 01:43:21;;;;;;;35.43;20.50;;;;;;;0.27;100.00;151438.97;5093431;28;20454;-90
2021/01/04 01:46:01;;;;;;;35.40;20.77;;;;;;;0.27;100.00;151438.97;5089931;28;20443;-90
2021/01/04 01:48:45;;;;;;;30.07;20.07;;;;;;;0.27;100.00;151438.97;5077399;28;20897;-90
2021/01/04 01:51:47;;;;;;;34.83;21.53;;;;;;;0.28;100.00;151441.53;5083804;28;20438;-90
2021/01/04 01:54:33;;;;;;;30.97;20.67;;;;;;;0.27;100.00;151440.25;5044707;28;20482;-90
2021/01/04 01:57:23;;;;;;;35.53;20.40;;;;;;;0.28;100.00;151441.53;5064351;28;20561;-90
2021/01/04 02:00:09;;;;;;;32.27;20.90;;;;;;;0.26;100.00;151436.41;5067854;28;20433;-90
2021/01/04 02:02:55;;;;;;;31.93;19.67;;;;;;;0.27;100.00;151440.25;5079395;28;20454;-90
2021/01/04 02:06:09;;;;;;;39.60;21.67;;;;;;;0.27;100.00;151438.97;5083432;28;20441;-90
2021/01/04 02:08:48;;;;;;;30.10;20.00;;;;;;;0.28;100.00;151442.84;5085412;28;20437;-90
2021/01/04 02:11:31;;;;;;;36.50;21.07;;;;;;;0.27;100.00;151438.97;5074918;28;20450;-90
2021/01/04 02:14:10;;;;;;;32.10;20.40;;;;;;;0.25;100.00;151433.84;5010944;28;20435;-90
2021/01/04 02:16:59;;;;;;;30.73;19.47;;;;;;;0.26;100.00;151436.41;5078791;28;20462;-91
2021/01/04 02:19:44;;;;;;;32.40;20.13;;;;;;;0.26;100.00;151436.41;5063185;28;20825;-90
2021/01/04 02:22:54;;;;;;;28.40;18.47;;;;;;;0.27;100.00;151438.97;5079360;28;20442;-90
2021/01/04 02:25:33;;;;;;;31.20;19.97;;;;;;;0.24;100.00;151431.28;5015049;28;20464;-90
2021/01/04 02:28:12;;;;;;;33.67;20.87;;;;;;;0.22;100.00;151426.13;5079239;28;20445;-90
2021/01/04 02:30:48;;;;;;;33.90;20.10;;;;;;;0.22;100.00;151426.13;5092534;28;20473;-91
2021/01/04 02:33:24;;;;;;;34.33;19.70;;;;;;;0.23;100.00;151428.72;5078827;28;20866;-91
2021/01/04 02:36:01;;;;;;;32.90;20.40;;;;;;;0.22;100.00;151426.13;5086994;28;20449;-90
2021/01/04 02:38:41;;;;;;;31.83;18.60;;;;;;;0.21;100.00;151423.59;5090436;28;20432;-90
2021/01/04 02:41:18;;;;;;;28.07;19.60;;;;;;;0.25;100.00;151435.13;5053978;28;20454;-90
2021/01/04 02:43:53;;;;;;;28.80;19.60;;;;;;;0.24;100.00;151431.28;5007138;28;20456;-90
2021/01/04 02:46:29;;;;;;;33.63;21.23;;;;;;;0.23;100.00;151428.72;5011836;28;20410;-91
2021/01/04 02:49:11;;;;;;;27.57;17.40;;;;;;;0.18;100.00;151415.88;5011293;28;20443;-90
2021/01/04 02:51:52;;;;;;;30.10;20.07;;;;;;;0.17;100.00;151414.59;5095498;28;20971;-91
2021/01/04 02:54:30;;;;;;;29.63;19.23;;;;;;;0.18;100.00;151415.88;5092502;28;20960;-90
2021/01/04 02:57:11;;;;;;;35.20;20.87;;;;;;;0.19;100.00;151418.41;5093233;28;20799;-91
2021/01/04 02:59:51;;;;;;;35.47;20.90;;;;;;;0.17;100.00;151414.59;5099649;28;20824;-90
2021/01/04 03:02:33;;;;;;;26.33;18.30;;;;;;;0.22;100.00;151426.13;5066219;28;20504;-90
2021/01/04 03:05:11;;;;;;;29.67;19.47;;;;;;;0.21;100.00;151423.59;5091550;28;20462;-90
2021/01/04 03:07:51;;;;;;;32.20;19.20;;;;;;;0.21;100.00;151423.59;5024216;28;20511;-90
2021/01/04 03:10:30;;;;;;;32.37;20.17;;;;;;;0.22;100.00;151427.41;5082208;28;20553;-90
2021/01/04 03:13:14;;;;;;;34.03;21.17;;;;;;;0.21;100.00;151424.88;5084132;28;20445;-90
2021/01/04 03:16:01;;;;;;;29.50;19.83;;;;;;;0.23;100.00;151428.72;5095521;28;20446;-90
2021/01/04 03:18:39;;;;;;;32.60;19.87;;;;;;;0.22;100.00;151426.13;5088518;28;20482;-90
2021/01/04 03:21:15;;;;;;;31.17;17.97;;;;;;;0.22;100.00;151427.41;5082573;28;20445;-90
2021/01/04 03:23:50;;;;;;;29.53;18.63;;;;;;;0.21;100.00;151424.88;5014140;28;20454;-90
2021/01/04 03:26:28;;;;;;;30.10;18.90;;;;;;;0.23;100.00;151428.72;5062633;28;20431;-90
2021/01/04 03:29:04;;;;;;;33.57;18.90;;;;;;;0.25;100.00;151433.84;5094546;28;20454;-90
2021/01/04 03:31:39;;;;;;;30.20;19.57;;;;;;;0.27;100.00;151438.97;5079291;28;20787;-90
2021/01/04 03:34:15;;;;;;;29.10;19.03;;;;;;;0.29;100.00;151444.13;5078687;28;20664;-90
2021/01/04 03:36:50;;;;;;;28.63;18.40;;;;;;;0.30;100.00;151447.97;5098136;28;20458;-91
2021/01/04 03:39:28;;;;;;;30.73;19.33;;;;;;;0.31;100.00;151450.53;5110575;28;20431;-90
2021/01/04 03:42:04;;;;;;;27.70;18.47;;;;;;;0.32;100.00;151451.84;5081958;28;20445;-90
2021/01/04 03:44:41;;;;;;;31.67;19.97;;;;;;;0.33;100.00;151454.38;5078877;28;20442;-90
2021/01/04 03:47:17;;;;;;;25.87;16.77;;;;;;;0.32;100.00;151451.84;5076668;28;20478;-91
2021/01/04 03:49:52;;;;;;;28.57;18.03;;;;;;;0.31;100.00;151449.25;5095630;28;20460;-90
2021/01/04 03:52:28;;;;;;;24.50;16.37;;;;;;;0.32;100.00;151451.84;5081350;28;20458;-90
2021/01/04 03:55:03;;;;;;;30.63;18.77;;;;;;;0.32;100.00;151451.84;5042632;28;20832;-90
2021/01/04 03:57:39;;;;;;;31.20;19.60;;;;;;;0.35;100.00;151459.50;5101293;28;20438;-90
2021/01/04 04:00:17;;;;;;;29.50;18.87;;;;;;;0.32;100.00;151451.84;5076052;28;20968;-90
2021/01/04 04:02:52;;;;;;;34.50;20.90;;;;;;;0.30;100.00;151447.97;5082879;28;20436;-90
2021/01/04 04:05:28;;;;;;;28.50;18.23;;;;;;;0.30;100.00;151446.66;5095268;28;20451;-91
2021/01/04 04:08:05;;;;;;;35.03;20.93;;;;;;;0.30;100.00;151446.66;5095848;28;20442;-90
2021/01/04 04:10:40;;;;;;;31.90;19.83;;;;;;;0.35;100.00;151459.50;5094387;28;20458;-90
2021/01/04 04:13:15;;;;;;;30.70;19.60;;;;;;;0.31;100.00;151449.25;5081136;28;20482;-90
2021/01/04 04:15:51;;;;;;;31.90;20.27;;;;;;;0.31;100.00;151449.25;5095421;28;20474;-91
2021/01/04 04:18:27;;;;;;;32.57;20.80;;;;;;;0.33;100.00;151455.66;5079851;28;20876;-90
2021/01/04 04:21:02;;;;;;;27.63;19.20;;;;;;;0.34;100.00;151458.25;5090249;28;20422;-90
2021/01/04 04:23:37;;;;;;;31.27;20.50;;;;;;;0.32;100.00;151451.84;5084675;28;20454;-90
2021/01/04 04:26:17;;;;;;;33.40;20.73;;;;;;;0.30;100.00;151446.66;5095229;28;20818;-91
2021/01/04 04:28:52;;;;;;;34.20;20.73;;;;;;;0.28;100.00;151441.53;5095510;28;20441;-90
2021/01/04 04:31:29;;;;;;;29.43;19.03;;;;;;;0.29;100.00;151444.13;5095067;28;20458;-90
2021/01/04 04:34:04;;;;;;;31.10;20.10;;;;;;;0.27;100.00;151440.25;5075761;28;20434;-90
2021/01/04 04:36:41;;;;;;;27.40;17.90;;;;;;;0.28;100.00;151441.53;5096383;28;20414;-90
2021/01/04 04:39:17;;;;;;;32.90;19.90;;;;;;;0.30;100.00;151447.97;5079337;28;20462;-90
2021/01/04 04:41:54;;;;;;;27.00;17.73;;;;;;;0.29;100.00;151445.38;5111218;28;20475;-90
2021/01/04 04:44:31;;;;;;;28.03;17.13;;;;;;;0.29;100.00;151445.38;5078758;28;20433;-90
2021/01/04 04:47:16;;;;;;;30.67;18.40;;;;;;;0.30;100.00;151447.97;5094844;28;20431;-90
2021/01/04 04:50:28;;;;;;;30.13;17.97;;;;;;;0.28;100.00;151441.53;5075008;28;20467;-90
2021/01/04 04:53:26;;;;;;;27.23;16.77;;;;;;;0.28;100.00;151442.84;5094021;28;20477;-90
2021/01/04 04:56:30;;;;;;;30.80;18.73;;;;;;;0.31;100.00;151449.25;5025718;28;20955;-90
2021/01/04 04:59:14;;;;;;;25.73;17.27;;;;;;;0.31;100.00;151449.25;5065323;28;20461;-90
2021/01/04 05:01:55;;;;;;;32.80;19.77;;;;;;;0.30;100.00;151446.66;5044930;28;20432;-90
2021/01/04 05:04:46;;;;;;;31.27;19.07;;;;;;;0.29;100.00;151445.38;5079598;28;20482;-90
2021/01/04 05:07:30;;;;;;;29.63;19.00;;;;;;;0.28;100.00;151441.53;5080858;28;20440;-90
2021/01/04 05:10:07;;;;;;;30.97;19.17;;;;;;;0.29;100.00;151444.13;5081483;28;20478;-90
2021/01/04 05:12:58;;;;;;;34.67;20.33;;;;;;;0.26;100.00;151436.41;5064485;28;20449;-90
2021/01/04 05:15:44;;;;;;;28.33;17.90;;;;;;;0.25;100.00;151435.13;5110996;28;20437;-90
2021/01/04 05:18:48;;;;;;;29.40;19.67;;;;;;;0.25;100.00;151433.84;5079952;28;20560;-90
2021/01/04 05:21:57;;;;;;;31.03;20.17;;;;;;;0.21;100.00;151423.59;5063943;28;20554;-89
2021/01/04 05:25:03;;;;;;;33.30;21.03;;;;;;;0.26;100.00;151436.41;5085561;28;20444;-90
2021/01/04 05:28:07;;;;;;;31.47;20.60;;;;;;;0.24;100.00;151431.28;5076058;28;20444;-90
2021/01/04 05:31:30;;;;;;;35.10;21.93;;;;;;;0.21;100.00;151424.88;5080112;28;20491;-90
2021/01/04 05:34:09;;;;;;;33.40;19.93;;;;;;;0.24;100.00;151431.28;5060523;28;20448;-90
2021/01/04 05:37:09;;;;;;;31.50;18.97;;;;;;;0.26;100.00;151436.41;5097322;28;20540;-90
2021/01/04 05:40:00;;;;;;;28.30;20.20;;;;;;;0.21;100.00;151423.59;5050807;28;20491;-90
2021/01/04 05:42:43;;;;;;;29.33;18.17;;;;;;;0.20;100.00;151422.28;5079826;28;20532;-90
2021/01/04 05:45:22;;;;;;;30.17;21.20;;;;;;;0.21;100.00;151423.59;5069074;28;20454;-89
2021/01/04 05:48:12;;;;;;;40.00;20.10;;;;;;;0.19;100.00;151418.41;5093287;28;20449;-90
2021/01/04 05:50:56;;;;;;;33.20;21.60;;;;;;;0.19;100.00;151419.72;5076507;28;20924;-90
2021/01/04 05:53:32;;;;;;;32.40;20.47;;;;;;;0.19;100.00;151419.72;5002982;28;20440;-89
2021/01/04 05:56:07;;;;;;;32.63;21.33;;;;;;;0.25;100.00;151433.84;5077246;28;20475;-90
2021/01/04 05:58:43;;;;;;;34.23;21.40;;;;;;;0.25;100.00;151433.84;5079641;28;20449;-90
2021/01/04 06:01:24;;;;;;;29.63;20.20;;;;;;;0.24;100.00;151431.28;5011439;28;20905;-90
2021/01/04 06:04:01;;;;;;;35.30;20.20;;;;;;;0.24;100.00;151432.53;5078065;28;20453;-89
2021/01/04 06:06:48;;;;;;;28.40;19.93;;;;;;;0.23;100.00;151428.72;5011746;28;20516;-89
2021/01/04 06:09:25;;;;;;;30.07;19.87;;;;;;;0.23;100.00;151430.00;5092494;28;20441;-89
2021/01/04 06:12:02;;;;;;;27.60;19.30;;;;;;;0.23;100.00;151430.00;5035427;28;20446;-90
2021/01/04 06:14:38;;;;;;;30.40;19.53;;;;;;;0.21;100.00;151424.88;5049453;28;20465;-89
2021/01/04 06:17:30;;;;;;;32.47;20.47;;;;;;;0.19;100.00;151419.72;5079971;28;20431;-87
2021/01/04 06:20:15;;;;;;;33.03;20.03;;;;;;;0.20;100.00;151421.00;5075117;28;20529;-89
2021/01/04 06:22:52;;;;;;;28.53;19.50;;;;;;;0.21;100.00;151423.59;5011559;28;20538;-89
2021/01/04 06:25:33;;;;;;;32.57;19.00;;;;;;;0.24;100.00;151431.28;5095590;28;20449;-89
2021/01/04 06:28:09;;;;;;;30.90;21.00;;;;;;;0.23;100.00;151430.00;5011591;28;20435;-89
2021/01/04 06:30:44;;;;;;;32.50;19.43;;;;;;;0.23;100.00;151428.72;5004818;28;20859;-87
2021/01/04 06:33:22;;;;;;;28.17;19.00;;;;;;;0.25;100.00;151433.84;5067282;28;20449;-89
2021/01/04 06:36:02;;;;;;;27.63;20.77;;;;;;;0.26;100.00;151437.72;5078978;28;20440;-89
2021/01/04 06:38:39;;;;;;;29.70;20.37;;;;;;;0.27;100.00;151438.97;5087702;28;20450;-89
2021/01/04 06:41:18;;;;;;;27.77;17.23;;;;;;;0.27;100.00;151438.97;5078034;28;20439;-89
2021/01/04 06:43:54;;;;;;;30.17;19.30;;;;;;;0.29;100.00;151445.38;5089527;28;20440;-89
2021/01/04 06:46:44;;;;;;;31.03;19.53;;;;;;;0.32;100.00;151453.06;5053932;28;20421;-89
2021/01/04 06:49:24;;;;;;;31.80;20.97;;;;;;;0.32;100.00;151453.06;5075730;28;20553;-89
2021/01/04 06:52:34;;;;;;;30.10;18.60;;;;;;;0.32;100.00;151451.84;5009379;28;20441;-89
2021/01/04 06:55:42;;;;;;;31.33;20.53;;;;;;;0.33;100.00;151454.38;5081734;28;20952;-89
2021/01/04 06:58:40;;;;;;;30.53;20.53;;;;;;;0.35;100.00;151459.50;5090416;28;20457;-89
2021/01/04 07:01:28;;;;;;;32.43;20.33;;;;;;;0.34;100.00;151458.25;5076651;28;20424;-89
2021/01/04 07:04:17;;;;;;;32.43;20.13;;;;;;;0.30;100.00;151447.97;5099953;28;20451;-89
2021/01/04 07:07:10;;;;;;;28.97;19.90;;;;;;;0.29;100.00;151445.38;5072041;28;20969;-89
2021/01/04 07:10:13;;;;;;;36.73;23.87;;;;;;;0.26;100.00;151437.72;5085806;28;20442;-89
2021/01/04 07:13:08;;;;;;;43.77;29.50;;;;;;;0.27;100.00;151438.97;5107283;28;20533;-89
2021/01/04 07:15:54;;;;;;;34.50;22.20;;;;;;;0.25;100.00;151435.13;5092790;28;20928;-89
2021/01/04 07:18:45;;;;;;;35.50;20.10;;;;;;;0.26;100.00;151436.41;5092225;28;20837;-89
2021/01/04 07:21:33;;;;;;;30.20;19.57;;;;;;;0.27;100.00;151438.97;5076438;28;20796;-89
2021/01/04 07:24:25;;;;;;;31.97;18.90;;;;;;;0.25;100.00;151435.13;5091979;28;20445;-89
2021/01/04 07:27:22;;;;;;;30.50;19.57;;;;;;;0.27;100.00;151438.97;5087681;28;20428;-89
2021/01/04 07:30:13;;;;;;;29.17;19.67;;;;;;;0.25;100.00;151433.84;5085866;28;20501;-89
2021/01/04 07:33:00;;;;;;;34.23;19.67;;;;;;;0.23;100.00;151428.72;5091650;28;20441;-88
2021/01/04 07:35:39;;;;;;;37.90;24.80;;;;;;;0.26;100.00;151436.41;5093733;28;20425;-89
2021/01/04 07:38:31;;;;;;;29.43;20.30;;;;;;;0.24;100.00;151431.28;5092219;28;20450;-84
2021/01/04 07:41:19;;;;;;;35.87;19.93;;;;;;;0.25;100.00;151433.84;5073740;28;20447;-89
2021/01/04 07:44:11;;;;;;;30.43;19.63;;;;;;;0.26;100.00;151436.41;5086269;28;20547;-89
2021/01/04 07:47:13;;;;;;;37.20;22.00;;;;;;;0.26;100.00;151436.41;5083148;28;21023;-89
2021/01/04 07:50:27;;;;;;;31.73;20.77;;;;;;;0.24;100.00;151431.28;5089426;28;20520;-89
2021/01/04 07:53:16;;;;;;;33.03;19.77;;;;;;;0.25;100.00;151435.13;5083477;28;20429;-91
2021/01/04 07:56:27;;;;;;;32.60;20.63;;;;;;;0.27;100.00;151438.97;5015960;28;20498;-90
2021/01/04 07:59:35;;;;;;;29.87;20.07;;;;;;;0.29;100.00;151444.13;4995451;28;20443;-91
2021/01/04 08:02:29;;;;;;;34.10;20.03;;;;;;;0.29;100.00;151444.13;4996564;28;20444;-89
2021/01/04 08:05:35;;;;;;;34.23;20.87;;;;;;;0.29;100.00;151444.13;4982967;28;20578;-87
2021/01/04 08:08:43;;;;;;;31.40;18.90;;;;;;;0.26;100.00;151436.41;5021987;28;20476;-88
2021/01/04 08:11:54;;;;;;;28.97;19.93;;;;;;;0.26;100.00;151436.41;5013787;28;20459;-89
2021/01/04 08:14:51;;;;;;;31.37;20.23;;;;;;;0.24;100.00;151432.53;5071693;28;20523;-89
2021/01/04 08:17:33;;;;;;;33.63;19.30;;;;;;;0.27;100.00;151440.25;5065611;28;20824;-89
2021/01/04 08:20:10;;;;;;;33.83;20.90;;;;;;;0.32;100.00;151451.84;5021913;28;20841;-89
2021/01/04 08:23:21;;;;;;;33.60;20.83;;;;;;;0.35;100.00;151460.78;5006555;28;20506;-90
2021/01/04 08:26:04;;;;;;;34.03;21.90;;;;;;;0.39;100.00;151471.09;4978149;28;20436;-89
2021/01/04 08:28:43;;;;;;;33.73;21.93;;;;;;;0.40;100.00;151473.63;4993946;28;20463;-90
2021/01/04 08:31:30;;;;;;;30.87;19.77;;;;;;;0.39;100.00;151469.78;4994532;28;20472;-89
2021/01/04 08:34:08;;;;;;;34.13;21.90;;;;;;;0.38;100.00;151467.19;4983694;28;20839;-89
2021/01/04 08:36:50;;;;;;;35.73;22.00;;;;;;;0.37;100.00;151464.66;5005647;28;20512;-89
2021/01/04 08:39:35;;;;;;;31.60;20.07;;;;;;;0.37;100.00;151464.66;4990943;28;20960;-88
2021/01/04 08:42:29;;;;;;;30.63;20.00;;;;;;;0.40;100.00;151472.31;4989113;28;20450;-88
2021/01/04 08:45:07;;;;;;;32.20;20.70;;;;;;;0.40;100.00;151473.63;4982606;28;20438;-78
2021/01/04 08:47:50;;;;;;;35.23;21.47;;;;;;;0.41;100.00;151474.91;4972845;28;20482;-78
2021/01/04 08:50:33;;;;;;;32.07;20.83;;;;;;;0.39;100.00;151469.78;4990010;28;20468;-78
2021/01/04 08:53:12;;;;;;;34.90;21.43;;;;;;;0.40;100.00;151472.31;4987788;28;20462;-78
2021/01/04 08:55:52;;;;;;;32.00;19.93;;;;;;;0.37;100.00;151464.66;5055840;28;20506;-78
2021/01/04 08:58:39;;;;;;;35.50;19.70;;;;;;;0.40;100.00;151473.63;5084436;28;20452;-78
2021/01/04 09:01:21;;;;;;;33.20;21.10;;;;;;;0.39;100.00;151469.78;5064114;28;20506;-78
2021/01/04 09:04:05;;;;;;;31.30;19.80;;;;;;;0.43;100.00;151481.31;5089018;28;20573;-78
2021/01/04 09:06:43;;;;;;;30.33;21.10;;;;;;;0.40;100.00;151472.31;5088317;28;20431;-78
2021/01/04 09:09:21;;;;;;;33.50;22.00;;;;;;;0.43;100.00;151480.03;5081438;28;20864;-78
2021/01/04 09:12:03;;;;;;;32.03;19.80;;;;;;;0.46;100.00;151487.75;5088632;28;20978;-78
2021/01/04 09:14:46;;;;;;;30.63;20.00;;;;;;;0.44;100.00;151482.63;5083483;28;21016;-78
2021/01/04 09:17:26;;;;;;;33.30;21.57;;;;;;;0.45;100.00;151486.44;5090849;28;20451;-78
2021/01/04 09:20:09;;;;;;;31.03;19.50;;;;;;;0.49;100.00;151496.75;5082900;28;20436;-78
2021/01/04 09:22:44;;;;;;;31.13;19.37;;;;;;;0.54;100.00;151508.28;5084803;28;20455;-78
2021/01/04 09:25:22;;;;;;;36.70;22.43;;;;;;;0.54;100.00;151508.28;5071871;28;21587;-78
2021/01/04 09:27:59;;;;;;;30.77;20.43;;;;;;;0.59;100.00;151521.13;5076645;28;20953;-79
2021/01/04 09:30:34;;;;;;;33.30;20.80;;;;;;;0.59;100.00;151522.41;5090748;28;20466;-79
2021/01/04 09:33:12;;;;;;;34.30;21.93;;;;;;;0.59;100.00;151522.41;5084408;28;20479;-79
2021/01/04 09:35:47;;;;;;;31.80;21.20;;;;;;;0.60;100.00;151523.72;5085387;28;20456;-78
2021/01/04 09:38:24;;;;;;;35.63;21.70;;;;;;;0.64;100.00;151532.72;5074933;28;20843;-78
2021/01/04 09:41:04;;;;;;;32.90;21.57;;;;;;;0.58;100.00;151518.59;5082122;28;20523;-78
2021/01/04 09:43:41;;;;;;;30.97;20.50;;;;;;;0.59;100.00;151521.13;5080849;28;20455;-78
2021/01/04 09:46:28;;;;;;;30.37;21.77;;;;;;;0.60;100.00;151523.72;5105644;27;20537;-78
2021/01/04 09:49:07;;;;;;;32.47;21.13;;;;;;;0.60;100.00;151525.00;5082654;28;21022;-78
2021/01/04 09:51:45;;;;;;;33.07;22.00;;;;;;;0.60;100.00;151523.72;5090258;28;21007;-78
2021/01/04 09:54:25;;;;;;;35.90;23.83;;;;;;;0.65;100.00;151536.53;5057145;28;20490;-78
2021/01/04 09:57:03;;;;;;;27.07;19.70;;;;;;;0.63;100.00;151531.41;5077727;28;20453;-78
2021/01/04 09:59:52;;;;;;;31.10;20.17;;;;;;;0.60;100.00;151525.00;5039917;28;21095;-79
2021/01/04 10:02:30;;;;;;;40.20;22.23;;;;;;;0.61;100.00;151527.53;5039221;28;20465;-79
2021/01/04 10:05:06;;;;;;;27.63;19.47;;;;;;;0.68;100.00;151544.25;5047710;28;20450;-79
2021/01/04 10:07:42;;;;;;;34.60;21.43;;;;;;;0.69;100.00;151546.78;5077402;28;20462;-79
2021/01/04 10:10:21;;;;;;;27.23;20.00;;;;;;;0.70;100.00;151549.38;5081267;28;20459;-78
2021/01/04 10:13:08;;;;;;;31.53;19.40;;;;;;;0.76;100.00;151564.81;5050804;28;20458;-78
2021/01/04 10:15:45;;;;;;;32.30;19.57;;;;;;;0.77;100.00;151566.09;5053435;28;20525;-79
2021/01/04 10:18:34;;;;;;;27.73;19.10;;;;;;;0.77;100.00;151566.09;5043894;28;20483;-88
2021/01/04 10:21:13;;;;;;;26.37;18.50;;;;;;;0.74;100.00;151559.66;5041055;28;20453;-89
2021/01/04 10:23:53;;;;;;;29.07;19.43;;;;;;;0.78;100.00;151569.91;5042431;28;20459;-88
2021/01/04 10:26:28;;;;;;;29.87;19.60;;;;;;;0.80;100.00;151575.03;5060744;28;20450;-89
2021/01/04 10:29:05;;;;;;;23.83;18.23;;;;;;;0.77;100.00;151567.34;5045445;28;20446;-90
2021/01/04 10:39:48;;;;;;;30.03;19.43;;;;;;;0.81;100.00;151577.63;5006103;28;20430;-88
2021/01/04 10:42:24;;;;;;;29.87;20.13;;;;;;;0.80;100.00;151573.75;5042581;28;20484;-90
2021/01/04 10:45:07;;;;;;;32.20;20.10;;;;;;;0.82;100.00;151578.94;5063077;28;20443;-91
2021/01/04 10:47:50;;;;;;;28.90;20.40;;;;;;;0.86;100.00;151590.47;5020261;28;20462;-91
2021/01/04 10:50:32;;;;;;;32.93;21.80;;;;;;;0.83;100.00;151581.47;5076412;28;20820;-89
2021/01/04 10:53:11;;;;;;;28.10;19.07;;;;;;;0.83;100.00;151581.47;5071412;28;20807;-90
2021/01/04 10:55:52;;;;;;;28.90;18.60;;;;;;;0.76;100.00;151564.81;5072006;28;20455;-89
2021/01/04 10:58:30;;;;;;;32.63;20.27;;;;;;;0.82;100.00;151580.16;5073828;28;21019;-90
2021/01/04 11:01:07;;;;;;;35.73;23.00;;;;;;;0.90;100.00;151600.72;5102002;28;20445;-90
2021/01/04 11:03:46;;;;;;;30.00;19.40;;;;;;;0.89;100.00;151596.88;5064758;28;20792;-90
2021/01/04 11:06:24;;;;;;;43.87;28.87;;;;;;;0.92;100.00;151605.91;5009768;28;20463;-88
2021/01/04 11:08:59;;;;;;;26.13;18.53;;;;;;;0.83;100.00;151582.75;5063721;28;20451;-89
2021/01/04 11:11:38;;;;;;;30.27;18.37;;;;;;;0.80;100.00;151575.03;5050762;28;20480;-88
2021/01/04 11:14:16;;;;;;;33.20;21.80;;;;;;;0.83;100.00;151581.47;5043787;28;20453;-88
2021/01/04 11:16:54;;;;;;;26.90;18.67;;;;;;;0.78;100.00;151569.91;5060200;28;20993;-89
2021/01/04 11:19:30;;;;;;;28.20;18.57;;;;;;;0.83;100.00;151581.47;5071914;28;20526;-87
2021/01/04 11:22:10;;;;;;;30.70;20.17;;;;;;;0.87;100.00;151591.75;5066162;28;20482;-87
2021/01/04 11:24:46;;;;;;;23.63;17.53;;;;;;;0.79;100.00;151571.22;5077912;28;20438;-88
2021/01/04 11:27:23;;;;;;;24.30;16.37;;;;;;;0.80;100.00;151575.03;5059312;28;20489;-89
2021/01/04 11:30:00;;;;;;;26.37;17.23;;;;;;;0.87;100.00;151593.06;5080255;28;20477;-91
2021/01/04 11:32:36;;;;;;;22.33;16.20;;;;;;;0.89;100.00;151598.19;5064046;28;20480;-89
2021/01/04 11:35:11;;;;;;;29.30;17.87;;;;;;;0.72;97.20;151554.50;5041968;28;20455;-89
2021/01/04 11:37:47;;;;;;;34.07;26.33;;;;;;;0.87;96.73;151591.75;5012447;28;20440;-89
2021/01/04 11:40:22;;;;;;;18.03;12.80;;;;;;;0.94;95.88;151609.72;5079317;28;20848;-90
2021/01/04 11:42:59;;;;;;;22.87;15.80;;;;;;;0.87;95.83;151593.06;5070359;28;20450;-88
2021/01/04 11:45:34;;;;;;;24.63;14.83;;;;;;;0.81;93.93;151577.63;5051292;28;20875;-88
2021/01/04 11:48:10;;;;;;;19.10;13.30;;;;;;;0.85;93.79;151587.88;5048317;28;20851;-89
2021/01/04 11:50:46;;;;;;;14.83;11.23;;;;;;;0.84;94.15;151585.34;5019979;28;20479;-89
2021/01/04 11:53:21;;;;;;;15.00;9.87;;;;;;;0.82;91.70;151580.16;5074240;28;20440;-88
2021/01/04 11:55:57;;;;;;;12.40;8.93;;;;;;;0.83;91.83;151582.75;5091111;28;20593;-89
2021/01/04 11:58:39;;;;;;;13.93;9.60;;;;;;;0.85;92.94;151586.63;5083591;28;20445;-88
2021/01/04 12:01:15;;;;;;;14.60;9.43;;;;;;;0.85;91.83;151586.63;5083776;28;20440;-89
2021/01/04 12:03:52;;;;;;;13.93;9.87;;;;;;;0.88;92.54;151594.31;5071002;28;20561;-88
2021/01/04 12:06:27;;;;;;;18.13;12.97;;;;;;;0.88;90.98;151594.31;5092496;28;20471;-89
2021/01/04 12:09:04;;;;;;;15.33;10.20;;;;;;;0.84;90.73;151585.34;5082708;28;20457;-89
2021/01/04 12:11:41;;;;;;;13.73;9.20;;;;;;;0.83;89.93;151582.75;5068005;28;20968;-89
2021/01/04 12:14:18;;;;;;;13.30;9.13;;;;;;;0.78;89.32;151568.63;5082161;28;20792;-88
2021/01/04 12:16:54;;;;;;;14.80;8.90;;;;;;;0.81;90.80;151576.34;5077239;28;20445;-86
2021/01/04 12:19:31;;;;;;;16.07;10.07;;;;;;;0.80;90.54;151575.03;5076513;28;20444;-88
2021/01/04 12:22:09;;;;;;;14.40;9.80;;;;;;;0.75;90.43;151562.22;5084129;28;20549;-88
2021/01/04 12:24:45;;;;;;;13.77;9.40;;;;;;;0.72;91.21;151553.22;5093171;28;20447;-88
2021/01/04 12:27:21;;;;;;;13.70;9.70;;;;;;;0.73;91.44;151555.78;5091061;28;20452;-88
2021/01/04 12:29:58;;;;;;;16.77;10.70;;;;;;;0.71;89.83;151550.66;5078688;28;20437;-89
2021/01/04 12:32:34;;;;;;;15.60;10.90;;;;;;;0.66;90.15;151537.84;5076702;28;20847;-88